Capitol Logistics 970


EBLG
Liège Airport
Liege, BE
HKJK
Jomo Kenyatta International Airport
Nairobi, KE

Route Details

Aircraft Information
Primary: Boeing 767-300BDSF
Backup: Not Available
Route Data
Distance: 3502nm
Sched. Duration: 7h 20m
Avg. Duration: 8h 06m (+87m)
Times Flown: 4
Recm'd Route: Not Available
Planned Altitude: 35,000ft
Origin Wx: EBLG 261220Z 04007KT 010V110 CAVOK 21/06 Q1035 NOSIG
Dest. Wx: HKJK 261200Z 06005KT 9999 BKN027 26/14 Q1022 NOSIG
Notes:

Financial History
Total Freight: 398,030lbs
Average Load: 99,508lbs/flt
Fuel Used: 380,913lbs
Avg. Fuel Used: 95,228lbs/flt
Fuel Expense: $422,813
Avg. Fuel Expense: $105,703
Avg. Fuel Cost: $1.11/lbs
Total Gross Income: $3,908,655
Pilot Pay: $806
Total Expenses: $422,343
Total Revenue: $3,056,468
Average Revenue: $977,163.66